KLGU/LGU METAR and TAF weather

Enter ICAO airport designator
Station Type Date Time Source
KLGU METAR 2022/01/25 05:51 UTC NOAA

KLGU 250551Z AUTO 33005KT 6SM HZ BKN047 OVC080 M06/M08 A3001 RMK AO2 SLP208 T10561083 11056 21067 55004


Station Type Date Time Source
KLGU Decoded METAR 2022/01/25 05:51 UTC NOAA

LOGAN CACHE AIRPORT, UT, United States (KLGU) 41-47N 111-51W 1355M
Jan 25, 2022 - 12:51 AM EST / 2022.01.25 0551 UTC
Wind: from the NNW (330 degrees) at 6 MPH (5 KT):0
Visibility: 6 mile(s):0
Sky conditions: overcast
Weather: haze
Temperature: 21.9 F (-5.6 C)
Windchill: 14 F (-10 C):1
Dew Point: 17.1 F (-8.3 C)
Relative Humidity: 81%
Pressure (altimeter): 30.01 in. Hg (1016 hPa)
Pressure tendency: 0.01 inches (0.4 hPa) lower than three hours ago
ob: KLGU 250551Z AUTO 33005KT 6SM HZ BKN047 OVC080 M06/M08 A3001 RMK AO2 SLP208 T10561083 11056 21067 55004
cycle: 6

Station Type Date Time Source
KLGU TAF 2022/01/25 06:30 UTC NOAA

TAF KLGU 250528Z 2506/2606 VRB03KT 3SM -SN BR BKN015 OVC020
FM251100 VRB04KT P6SM VCSH OVC050
FM251900 VRB04KT P6SM BKN150

Example: see airport list